Pays
Station

 

Conditions  météo  pour  Ramona, Ramona Airport  -  Etats-Unis    Etats-Unis

  
13 °C
    
 
 

METAR pour Ramona, Ramona Airport :

KRNM 231153Z AUTO 00000KT 10SM OVC013 13/10 A2994 RMK AO2 SLP128 T01330100 10133 20106 56003 $

 

Voici le bulletin pour Ramona, Ramona Airport - Etats-Unis.
 
Le bulletin a été fait il y a 33 minutes, à 11:53 UTC .
Le vent était calme.
 
La température était de 13 °C, avec un point de rosée à 10 °C.
La pression atmosphérique était de 1014 hPa.
L'humidité relative était de 82.0%.
 
Le ciel était nuageux à partir d'une hauteur de 396 mètres
 
La visibilité globale était de 16.1 kilomètres.
 

 
 
 

Pays :   A   B   C   D   E   F   G   H   I   J   K   L   M   N   O   P   Q   R   S   T   U   V   W   Y   Z

 

Partenaires :  Info Météo avec Met'info
Météo Marine avec MeteoMarine.net
Infos Site  |  Infos Légales  |  Crédits  |  Confidentialité
Contactez-nous  |  Ajouter aux favoris
© 2013-2018 METAR - Tous droits réservés